createdAt,value
2022-10-01T00:01:19.367Z,6.20
2022-10-01T00:03:48.047Z,5.03
2022-10-01T00:06:19.462Z,5.53
2022-10-01T00:08:49.144Z,4.95
2022-10-01T00:11:22.826Z,6.60
2022-10-01T00:13:51.160Z,5.07
2022-10-01T00:16:22.361Z,5.53
2022-10-01T00:18:51.013Z,4.97
2022-10-01T00:21:24.602Z,5.57
2022-10-01T00:24:01.838Z,5.13
2022-10-01T00:26:32.055Z,4.93
2022-10-01T00:29:03.537Z,5.57
2022-10-01T00:31:30.967Z,5.15
2022-10-01T00:34:00.190Z,5.35
2022-10-01T00:36:27.779Z,5.68
2022-10-01T00:39:00.697Z,5.53
2022-10-01T00:41:30.658Z,5.43
2022-10-01T00:44:01.508Z,4.75
2022-10-01T00:46:40.516Z,5.80
2022-10-01T00:49:11.025Z,5.18
2022-10-01T00:51:42.517Z,4.50
2022-10-01T00:54:17.367Z,4.75
2022-10-01T00:56:46.440Z,4.22
2022-10-01T00:59:16.608Z,4.65
2022-10-01T01:01:44.576Z,4.78
2022-10-01T01:04:17.793Z,4.80
2022-10-01T01:06:53.953Z,4.18
2022-10-01T01:09:23.029Z,4.05
2022-10-01T01:12:01.575Z,4.20
2022-10-01T01:14:49.825Z,4.00
2022-10-01T01:17:26.055Z,4.47
2022-10-01T01:19:59.369Z,4.30
2022-10-01T01:22:32.387Z,5.50
2022-10-01T01:27:57.784Z,4.50
2022-10-01T01:30:25.127Z,4.60
2022-10-01T01:33:12.147Z,4.05
2022-10-01T01:35:48.149Z,4.30
2022-10-01T01:38:21.004Z,3.58
2022-10-01T01:43:24.434Z,3.92
2022-10-01T01:45:56.414Z,3.95
2022-10-01T01:48:24.884Z,4.17
2022-10-01T01:50:57.105Z,4.35
2022-10-01T01:53:26.132Z,4.50
2022-10-01T01:55:54.148Z,4.32
2022-10-01T01:58:21.585Z,4.03
2022-10-01T02:00:54.688Z,4.40
2022-10-01T02:03:25.766Z,3.83
2022-10-01T02:06:19.012Z,3.67
2022-10-01T02:08:58.512Z,4.78
2022-10-01T02:11:33.424Z,5.05
2022-10-01T02:14:48.829Z,3.95
2022-10-01T02:17:22.114Z,4.78
2022-10-01T02:20:04.980Z,3.63
2022-10-01T02:22:58.488Z,4.07
2022-10-01T02:28:08.035Z,3.08
2022-10-01T02:30:38.237Z,4.13
2022-10-01T02:33:08.308Z,4.00
2022-10-01T02:35:38.010Z,4.35
2022-10-01T02:38:09.869Z,3.83
2022-10-01T02:40:42.542Z,4.00
2022-10-01T02:43:16.641Z,3.88
2022-10-01T02:45:51.693Z,3.95
2022-10-01T02:48:19.301Z,4.20
2022-10-01T02:50:57.451Z,4.63
2022-10-01T02:53:37.793Z,4.47
2022-10-01T02:56:06.808Z,5.78
2022-10-01T02:58:34.222Z,4.70
2022-10-01T03:01:01.313Z,4.68
2022-10-01T03:03:28.574Z,5.15
2022-10-01T03:05:55.613Z,5.68
2022-10-01T03:08:23.560Z,4.78
2022-10-01T03:10:50.847Z,4.78
2022-10-01T03:13:19.933Z,4.60
2022-10-01T03:15:47.412Z,4.85
2022-10-01T03:18:14.660Z,5.32
2022-10-01T03:20:41.692Z,5.15
2022-10-01T03:23:08.880Z,4.00
2022-10-01T03:25:36.549Z,3.90
2022-10-01T03:28:03.801Z,4.10
2022-10-01T03:30:30.940Z,3.65
2022-10-01T03:32:58.152Z,3.85
2022-10-01T03:35:25.421Z,4.03
2022-10-01T03:37:53.232Z,3.90
2022-10-01T03:40:20.360Z,3.22
2022-10-01T03:42:47.520Z,3.38
2022-10-01T03:45:14.553Z,3.25
2022-10-01T03:47:41.747Z,3.80
2022-10-01T03:50:08.965Z,3.22
2022-10-01T03:52:36.169Z,3.63
2022-10-01T03:55:03.363Z,3.47
2022-10-01T03:57:32.813Z,3.20
2022-10-01T03:59:59.863Z,3.03
2022-10-01T04:02:27.956Z,4.05
2022-10-01T04:04:55.085Z,2.90
2022-10-01T04:07:22.455Z,3.50
2022-10-01T04:09:51.239Z,3.20
2022-10-01T04:12:19.104Z,3.53
2022-10-01T04:14:46.138Z,3.40
2022-10-01T04:17:13.248Z,3.50
2022-10-01T04:19:40.359Z,3.33
2022-10-01T04:22:07.711Z,3.28
2022-10-01T04:24:34.833Z,3.65
2022-10-01T04:27:01.992Z,3.72
2022-10-01T04:29:29.036Z,3.25
2022-10-01T04:31:58.401Z,4.03
2022-10-01T04:34:45.528Z,3.50
2022-10-01T04:37:13.331Z,3.72
2022-10-01T04:39:40.657Z,3.38
2022-10-01T04:42:07.711Z,3.95
2022-10-01T04:44:35.676Z,4.50
2022-10-01T04:47:02.920Z,3.95
2022-10-01T04:49:31.153Z,3.50
2022-10-01T04:51:58.525Z,3.38
2022-10-01T04:54:25.603Z,3.72
2022-10-01T04:56:53.128Z,3.72
2022-10-01T04:59:20.198Z,3.05
2022-10-01T05:01:47.501Z,3.40
2022-10-01T05:04:14.642Z,4.22
2022-10-01T05:06:41.953Z,4.30
2022-10-01T05:09:09.126Z,3.50
2022-10-01T05:11:36.498Z,3.60
2022-10-01T05:14:04.054Z,2.97
2022-10-01T05:16:31.188Z,3.30
2022-10-01T05:18:59.148Z,4.05
2022-10-01T05:21:26.451Z,3.72
2022-10-01T05:23:53.513Z,4.15
2022-10-01T05:26:20.757Z,4.40
2022-10-01T05:28:47.805Z,4.03
2022-10-01T05:31:16.243Z,3.83
2022-10-01T05:33:43.314Z,4.40
2022-10-01T05:36:10.614Z,4.25
2022-10-01T05:38:37.674Z,4.70
2022-10-01T05:41:05.499Z,4.93
2022-10-01T05:43:32.918Z,4.80
2022-10-01T05:46:05.570Z,3.83
2022-10-01T05:48:34.834Z,3.60
2022-10-01T05:51:03.312Z,3.30
2022-10-01T05:53:30.470Z,3.97
2022-10-01T05:56:00.405Z,5.63
2022-10-01T05:58:27.585Z,4.90
2022-10-01T06:00:55.764Z,5.25
2022-10-01T06:03:23.935Z,4.53
2022-10-01T06:05:52.080Z,3.80
2022-10-01T06:08:19.675Z,3.80
2022-10-01T06:10:47.345Z,3.72
2022-10-01T06:13:17.995Z,3.70
2022-10-01T06:15:47.900Z,3.88
2022-10-01T06:18:15.126Z,3.72
2022-10-01T06:20:42.434Z,2.92
2022-10-01T06:23:12.355Z,3.10
2022-10-01T06:25:41.167Z,3.25
2022-10-01T06:28:11.450Z,3.30
2022-10-01T06:30:40.342Z,3.28
2022-10-01T06:33:14.436Z,3.08
2022-10-01T06:35:50.245Z,3.65
2022-10-01T06:38:22.627Z,3.00
2022-10-01T06:43:21.917Z,3.28
2022-10-01T06:45:49.182Z,3.05
2022-10-01T06:48:19.816Z,3.15
2022-10-01T06:50:48.569Z,4.53
2022-10-01T06:53:17.558Z,4.07
2022-10-01T06:55:45.661Z,4.82
2022-10-01T06:58:21.194Z,5.28
2022-10-01T07:00:49.495Z,9.95
2022-10-01T07:03:19.203Z,7.60
2022-10-01T07:05:47.193Z,7.57
2022-10-01T07:08:14.496Z,4.57
2022-10-01T07:10:42.294Z,7.05
2022-10-01T07:13:11.834Z,6.25
2022-10-01T07:15:39.895Z,7.80
2022-10-01T07:18:09.707Z,7.88
2022-10-01T07:20:40.146Z,7.25
2022-10-01T07:23:11.241Z,6.93
2022-10-01T07:25:40.345Z,5.85
2022-10-01T07:28:16.417Z,7.50
2022-10-01T07:30:57.297Z,4.82
2022-10-01T07:33:24.480Z,4.95
2022-10-01T07:35:51.727Z,3.00
2022-10-01T07:38:19.329Z,3.33
2022-10-01T07:40:54.961Z,4.65
2022-10-01T07:43:23.032Z,3.47
2022-10-01T07:45:52.603Z,4.72
2022-10-01T07:48:19.766Z,5.65
2022-10-01T07:50:47.477Z,5.07
2022-10-01T07:53:14.583Z,7.88
2022-10-01T07:55:42.055Z,5.85
2022-10-01T07:58:10.162Z,5.75
2022-10-01T08:00:37.318Z,6.05
2022-10-01T08:03:07.972Z,6.22
2022-10-01T08:05:36.470Z,4.90
2022-10-01T08:08:06.175Z,5.18
2022-10-01T08:10:36.798Z,4.82
2022-10-01T08:13:16.587Z,4.47
2022-10-01T08:15:46.010Z,4.13
2022-10-01T08:18:13.674Z,4.63
2022-10-01T08:20:41.075Z,4.10
2022-10-01T08:23:13.303Z,5.57
2022-10-01T08:25:41.982Z,4.57
2022-10-01T08:28:11.420Z,4.25
2022-10-01T08:30:40.370Z,4.22
2022-10-01T08:33:09.899Z,3.95
2022-10-01T08:35:40.547Z,5.97
2022-10-01T08:38:08.119Z,4.47
2022-10-01T08:40:41.049Z,4.15
2022-10-01T08:43:18.573Z,4.82
2022-10-01T08:45:53.801Z,4.82
2022-10-01T08:48:37.810Z,5.85
2022-10-01T08:51:16.268Z,4.15
2022-10-01T08:53:51.173Z,5.35
2022-10-01T08:56:24.376Z,7.03
2022-10-01T08:58:58.898Z,5.15
2022-10-01T09:01:27.595Z,5.95
2022-10-01T09:03:55.058Z,4.00
2022-10-01T09:06:25.666Z,5.47
2022-10-01T09:09:07.931Z,4.28
2022-10-01T09:12:00.069Z,6.68
2022-10-01T09:14:47.095Z,5.28
2022-10-01T09:17:30.914Z,3.78
2022-10-01T09:20:05.952Z,3.67
2022-10-01T09:22:38.883Z,3.40
2022-10-01T09:25:12.644Z,4.53
2022-10-01T09:27:40.618Z,4.82
2022-10-01T09:30:21.693Z,4.10
2022-10-01T09:33:14.636Z,4.25
2022-10-01T09:35:44.714Z,5.00
2022-10-01T09:38:42.496Z,4.68
2022-10-01T09:41:11.906Z,4.95
2022-10-01T09:43:41.754Z,3.65
2022-10-01T09:46:13.789Z,3.72
2022-10-01T09:48:58.912Z,3.58
2022-10-01T09:51:36.882Z,4.43
2022-10-01T09:54:15.475Z,4.43
2022-10-01T09:56:54.242Z,4.38
2022-10-01T09:59:28.674Z,3.90
2022-10-01T10:02:02.356Z,3.25
2022-10-01T10:04:30.299Z,2.97
2022-10-01T10:07:03.316Z,3.97
2022-10-01T10:09:33.193Z,4.05
2022-10-01T10:12:01.465Z,4.20
2022-10-01T10:14:30.957Z,4.38
2022-10-01T10:16:59.334Z,5.90
2022-10-01T10:19:31.226Z,4.30
2022-10-01T10:22:14.013Z,6.83
2022-10-01T10:24:41.490Z,4.78
2022-10-01T10:27:29.445Z,3.70
2022-10-01T10:30:15.227Z,4.10
2022-10-01T10:32:44.430Z,4.13
2022-10-01T10:35:19.436Z,6.45
2022-10-01T10:37:50.177Z,4.90
2022-10-01T10:40:28.421Z,5.03
2022-10-01T10:42:58.978Z,4.35
2022-10-01T10:45:36.820Z,5.25
2022-10-01T10:48:07.763Z,5.68
2022-10-01T10:50:40.483Z,5.60
2022-10-01T10:53:22.554Z,3.78
2022-10-01T10:56:02.785Z,4.20
2022-10-01T10:58:33.483Z,4.68
2022-10-01T11:01:10.327Z,4.32
2022-10-01T11:03:42.693Z,3.97
2022-10-01T11:06:12.583Z,4.30
2022-10-01T11:08:40.116Z,4.35
2022-10-01T11:11:10.203Z,3.30
2022-10-01T11:13:51.222Z,3.83
2022-10-01T11:16:24.721Z,4.90
2022-10-01T11:19:07.906Z,5.32
2022-10-01T11:24:10.774Z,3.70
2022-10-01T11:29:55.025Z,3.83
2022-10-01T11:32:45.654Z,4.03
2022-10-01T11:35:51.232Z,5.45
2022-10-01T11:38:36.491Z,3.55
2022-10-01T11:41:22.353Z,4.32
2022-10-01T11:43:56.559Z,3.20
2022-10-01T11:46:55.891Z,3.10
2022-10-01T11:50:03.353Z,3.88
2022-10-01T11:52:34.045Z,3.70
2022-10-01T11:55:24.806Z,3.00
2022-10-01T11:58:17.274Z,3.38
2022-10-01T12:00:56.215Z,4.30
2022-10-01T12:03:29.045Z,4.03
2022-10-01T12:08:29.802Z,3.10
2022-10-01T12:11:11.968Z,4.30
2022-10-01T12:13:45.994Z,5.07
2022-10-01T12:16:37.212Z,3.88
2022-10-01T12:19:06.743Z,3.13
2022-10-01T12:22:05.723Z,3.20
2022-10-01T12:24:51.820Z,3.65
2022-10-01T12:27:37.550Z,4.72
2022-10-01T12:30:21.213Z,3.58
2022-10-01T12:33:09.556Z,3.80
2022-10-01T12:36:03.579Z,3.95
2022-10-01T12:38:30.638Z,4.22
2022-10-01T12:41:24.202Z,5.43
2022-10-01T12:44:09.924Z,4.63
2022-10-01T12:46:47.911Z,3.00
2022-10-01T12:49:22.666Z,3.35
2022-10-01T12:52:53.632Z,3.10
2022-10-01T12:55:35.590Z,3.80
2022-10-01T12:58:37.802Z,3.10
2022-10-01T13:01:29.310Z,3.22
2022-10-01T13:03:58.823Z,3.00
2022-10-01T13:06:41.134Z,2.92
2022-10-01T13:09:23.370Z,3.00
2022-10-01T13:12:29.144Z,3.25
2022-10-01T13:14:56.927Z,3.38
2022-10-01T13:17:53.536Z,5.28
2022-10-01T13:20:41.335Z,3.55
2022-10-01T13:23:27.259Z,3.42
2022-10-01T13:26:26.126Z,3.03
2022-10-01T13:29:18.123Z,3.50
2022-10-01T13:32:04.124Z,5.70
2022-10-01T13:34:51.838Z,3.65
2022-10-01T13:37:38.619Z,4.07
2022-10-01T13:40:32.134Z,3.13
2022-10-01T13:43:18.461Z,3.13
2022-10-01T13:45:47.572Z,3.33
2022-10-01T13:48:21.197Z,5.30
2022-10-01T13:51:04.479Z,4.85
2022-10-01T13:53:39.108Z,5.93
2022-10-01T13:56:07.047Z,4.65
2022-10-01T13:58:37.190Z,5.78
2022-10-01T14:01:26.257Z,7.05
2022-10-01T14:04:25.565Z,4.50
2022-10-01T14:06:57.594Z,4.65
2022-10-01T14:09:29.151Z,5.47
2022-10-01T14:12:20.138Z,4.63
2022-10-01T14:15:13.586Z,4.38
2022-10-01T14:17:43.371Z,4.47
2022-10-01T14:20:22.314Z,3.90
2022-10-01T14:23:16.149Z,4.57
2022-10-01T14:26:01.802Z,3.88
2022-10-01T14:28:50.496Z,5.18
2022-10-01T14:31:54.537Z,5.32
2022-10-01T14:34:45.835Z,4.80
2022-10-01T14:37:17.424Z,4.57
2022-10-01T14:39:45.311Z,4.50
2022-10-01T14:42:18.705Z,5.20
2022-10-01T14:44:47.429Z,4.72
2022-10-01T14:47:23.161Z,5.47
2022-10-01T14:49:51.291Z,5.15
2022-10-01T14:52:30.113Z,7.43
2022-10-01T14:54:57.260Z,7.43
2022-10-01T14:57:34.379Z,5.40
2022-10-01T15:00:08.287Z,4.10
2022-10-01T15:02:43.585Z,4.15
2022-10-01T15:05:33.097Z,4.53
2022-10-01T15:08:22.495Z,4.43
2022-10-01T15:10:56.680Z,4.20
2022-10-01T15:13:38.859Z,5.18
2022-10-01T15:16:15.344Z,5.40
2022-10-01T15:18:47.257Z,5.03
2022-10-01T15:21:26.439Z,5.50
2022-10-01T15:23:54.141Z,5.22
2022-10-01T15:26:30.003Z,5.20
2022-10-01T15:29:13.927Z,4.90
2022-10-01T15:31:41.885Z,6.35
2022-10-01T15:34:14.159Z,4.72
2022-10-01T15:36:42.472Z,5.55
2022-10-01T15:39:34.363Z,6.45
2022-10-01T15:42:08.933Z,5.43
2022-10-01T15:44:46.643Z,4.68
2022-10-01T15:47:19.715Z,4.88
2022-10-01T15:50:10.189Z,4.93
2022-10-01T15:52:54.387Z,4.95
2022-10-01T15:55:27.789Z,4.60
2022-10-01T15:58:15.305Z,2.67
2022-10-01T16:00:51.260Z,1.42
2022-10-01T16:03:27.544Z,1.85
2022-10-01T16:05:56.474Z,1.40
2022-10-01T16:08:33.076Z,1.48
2022-10-01T16:11:24.272Z,1.70
2022-10-01T16:13:52.967Z,1.20
2022-10-01T16:16:21.777Z,1.52
2022-10-01T16:19:23.114Z,1.38
2022-10-01T16:22:21.233Z,1.50
2022-10-01T16:24:51.074Z,1.42
2022-10-01T16:27:19.754Z,1.20
2022-10-01T16:29:54.365Z,1.60
2022-10-01T16:32:21.561Z,1.77
2022-10-01T16:34:48.640Z,1.63
2022-10-01T16:37:17.684Z,1.52
2022-10-01T16:39:45.408Z,1.42
2022-10-01T16:42:25.139Z,1.67
2022-10-01T16:44:52.667Z,1.55
2022-10-01T16:47:19.702Z,2.60
2022-10-01T16:49:48.317Z,1.23
2022-10-01T16:52:16.706Z,1.45
2022-10-01T16:54:45.266Z,1.30
2022-10-01T16:57:12.295Z,1.00
2022-10-01T16:59:39.463Z,1.20
2022-10-01T17:02:12.294Z,1.20
2022-10-01T17:04:39.697Z,1.38
2022-10-01T17:07:07.068Z,1.40
2022-10-01T17:09:34.294Z,1.40
2022-10-01T17:12:02.070Z,1.60
2022-10-01T17:14:29.252Z,1.70
2022-10-01T17:16:56.365Z,1.80
2022-10-01T17:19:24.715Z,1.67
2022-10-01T17:21:51.939Z,1.75
2022-10-01T17:24:19.081Z,2.15
2022-10-01T17:26:46.227Z,1.10
2022-10-01T17:29:13.557Z,1.13
2022-10-01T17:31:41.524Z,1.40
2022-10-01T17:34:08.767Z,1.63
2022-10-01T17:36:35.999Z,1.70
2022-10-01T17:39:04.087Z,1.13
2022-10-01T17:41:31.325Z,1.30
2022-10-01T17:43:58.817Z,1.58
2022-10-01T17:46:26.117Z,1.40
2022-10-01T17:48:53.285Z,1.30
2022-10-01T17:51:21.220Z,1.65
2022-10-01T17:53:48.508Z,1.50
2022-10-01T17:56:19.308Z,1.60
2022-10-01T17:58:47.235Z,1.30
2022-10-01T18:01:20.458Z,1.50
2022-10-01T18:03:48.252Z,1.45
2022-10-01T18:06:16.397Z,1.50
2022-10-01T18:08:58.912Z,1.30
2022-10-01T18:11:29.095Z,1.00
2022-10-01T18:13:56.797Z,1.40
2022-10-01T18:16:24.866Z,1.48
2022-10-01T18:21:47.658Z,1.17
2022-10-01T18:24:15.666Z,1.40
2022-10-01T18:26:43.201Z,1.60
2022-10-01T18:29:17.496Z,1.73
2022-10-01T18:31:47.585Z,1.85
2022-10-01T18:34:31.584Z,1.10
2022-10-01T18:37:07.157Z,1.60
2022-10-01T18:39:41.360Z,1.10
2022-10-01T18:42:17.568Z,1.80
2022-10-01T18:44:45.186Z,1.00
2022-10-01T18:47:23.138Z,0.95
2022-10-01T18:50:02.150Z,1.27
2022-10-01T18:52:46.978Z,1.10
2022-10-01T18:55:30.384Z,2.03
2022-10-01T18:58:13.837Z,1.70
2022-10-01T19:00:49.436Z,1.30
2022-10-01T19:03:41.014Z,1.60
2022-10-01T19:06:33.082Z,0.90
2022-10-01T19:09:12.661Z,0.90
2022-10-01T19:11:43.320Z,0.90
2022-10-01T19:14:34.690Z,0.98
2022-10-01T19:17:35.830Z,1.50
2022-10-01T19:20:17.344Z,1.88
2022-10-01T19:23:26.165Z,1.95
2022-10-01T19:26:12.594Z,2.58
2022-10-01T19:28:51.852Z,1.90
2022-10-01T19:31:49.575Z,1.83
2022-10-01T19:34:33.318Z,1.65
2022-10-01T19:37:05.785Z,1.30
2022-10-01T19:39:39.337Z,1.33
2022-10-01T19:42:14.407Z,1.05
2022-10-01T19:45:03.720Z,1.08
2022-10-01T19:47:48.468Z,2.15
2022-10-01T19:50:22.338Z,1.25
2022-10-01T19:52:51.881Z,1.20
2022-10-01T19:55:21.136Z,1.20
2022-10-01T19:57:48.790Z,1.00
2022-10-01T20:00:19.801Z,1.10
2022-10-01T20:02:51.866Z,0.80
2022-10-01T20:05:32.510Z,1.10
2022-10-01T20:08:16.483Z,1.20
2022-10-01T20:10:49.619Z,0.85
2022-10-01T20:13:29.642Z,1.50
2022-10-01T20:15:59.689Z,1.25
2022-10-01T20:18:39.193Z,1.42
2022-10-01T20:21:42.075Z,1.67
2022-10-01T20:24:18.615Z,1.87
2022-10-01T20:26:51.667Z,2.17
2022-10-01T20:29:43.579Z,1.10
2022-10-01T20:32:30.068Z,1.40
2022-10-01T20:35:34.363Z,1.33
2022-10-01T20:38:07.615Z,1.00
2022-10-01T20:40:40.228Z,1.10
2022-10-01T20:43:18.143Z,1.10
2022-10-01T20:45:50.082Z,1.40
2022-10-01T20:48:25.851Z,1.15
2022-10-01T20:50:59.989Z,1.10
2022-10-01T20:53:55.262Z,0.88
2022-10-01T20:56:33.684Z,0.90
2022-10-01T20:59:23.794Z,1.55
2022-10-01T21:02:02.578Z,1.80
2022-10-01T21:04:38.439Z,1.90
2022-10-01T21:07:37.809Z,1.60
2022-10-01T21:10:17.464Z,1.52
2022-10-01T21:12:54.753Z,1.35
2022-10-01T21:15:29.164Z,1.52
2022-10-01T21:18:04.739Z,1.63
2022-10-01T21:20:31.830Z,1.27
2022-10-01T21:23:21.649Z,1.50
2022-10-01T21:25:54.656Z,1.10
2022-10-01T21:28:42.838Z,1.10
2022-10-01T21:31:31.196Z,1.02
2022-10-01T21:33:58.291Z,1.40
2022-10-01T21:36:37.650Z,1.50
2022-10-01T21:39:18.018Z,1.23
2022-10-01T21:42:20.088Z,1.05
2022-10-01T21:44:55.909Z,1.15
2022-10-01T21:47:25.849Z,1.15
2022-10-01T21:50:18.558Z,1.17
2022-10-01T21:53:07.167Z,1.23
2022-10-01T21:56:03.760Z,1.30
2022-10-01T21:58:54.921Z,0.95
2022-10-01T22:01:22.296Z,1.20
2022-10-01T22:03:57.664Z,0.90
2022-10-01T22:06:46.455Z,0.95
2022-10-01T22:09:17.086Z,0.90
2022-10-01T22:11:54.653Z,1.00
2022-10-01T22:14:22.995Z,1.02
2022-10-01T22:16:57.564Z,1.00
2022-10-01T22:19:37.485Z,1.50
2022-10-01T22:22:30.325Z,3.75
2022-10-01T22:25:00.174Z,1.20
2022-10-01T22:27:56.058Z,2.05
2022-10-01T22:30:28.998Z,1.42
2022-10-01T22:33:08.098Z,1.23
2022-10-01T22:36:17.290Z,1.48
2022-10-01T22:38:56.992Z,1.60
2022-10-01T22:41:41.609Z,1.20
2022-10-01T22:44:35.139Z,1.40
2022-10-01T22:47:12.349Z,1.58
2022-10-01T22:49:57.045Z,1.35
2022-10-01T22:52:35.413Z,1.42
2022-10-01T22:55:11.372Z,1.38
2022-10-01T22:57:56.408Z,1.75
2022-10-01T23:00:23.800Z,1.80
2022-10-01T23:03:15.354Z,1.38
2022-10-01T23:05:57.778Z,1.10
2022-10-01T23:08:27.554Z,1.40
2022-10-01T23:10:54.672Z,1.13
2022-10-01T23:13:53.246Z,1.10
2022-10-01T23:16:23.113Z,1.00
2022-10-01T23:19:07.127Z,1.13
2022-10-01T23:22:01.995Z,1.35
2022-10-01T23:24:50.381Z,1.42
2022-10-01T23:27:59.466Z,1.23
2022-10-01T23:30:37.695Z,1.15
2022-10-01T23:33:28.292Z,1.63
2022-10-01T23:36:18.406Z,1.40
2022-10-01T23:38:56.412Z,1.15
2022-10-01T23:41:37.834Z,1.23
2022-10-01T23:44:18.216Z,1.20
2022-10-01T23:46:51.090Z,1.10
2022-10-01T23:49:22.373Z,1.20
2022-10-01T23:51:59.160Z,1.20
2022-10-01T23:54:47.674Z,0.85
2022-10-01T23:57:14.649Z,1.10
